createdAt,value
2018-07-30T00:01:36.894Z,99.90
2018-07-30T00:04:04.418Z,99.90
2018-07-30T00:08:59.009Z,99.90
2018-07-30T00:11:26.487Z,99.90
2018-07-30T00:13:53.933Z,99.90
2018-07-30T00:16:21.300Z,99.90
2018-07-30T00:18:48.693Z,99.90
2018-07-30T00:21:16.238Z,99.90
2018-07-30T00:23:44.906Z,99.90
2018-07-30T00:26:12.277Z,99.90
2018-07-30T00:28:39.671Z,99.90
2018-07-30T00:31:07.033Z,99.90
2018-07-30T00:33:34.445Z,99.90
2018-07-30T00:36:01.783Z,99.90
2018-07-30T00:38:29.155Z,99.90
2018-07-30T00:40:56.755Z,99.90
2018-07-30T00:43:24.372Z,99.90
2018-07-30T00:45:52.014Z,99.90
2018-07-30T00:48:19.698Z,99.90
2018-07-30T00:50:47.004Z,99.90
2018-07-30T00:53:14.421Z,99.90
2018-07-30T00:55:41.994Z,99.90
2018-07-30T00:58:09.355Z,99.90
2018-07-30T01:00:36.816Z,99.90
2018-07-30T01:03:04.549Z,99.90
2018-07-30T01:05:31.887Z,99.90
2018-07-30T01:07:59.514Z,99.90
2018-07-30T01:10:26.894Z,99.90
2018-07-30T01:12:54.361Z,99.90
2018-07-30T01:15:21.717Z,99.90
2018-07-30T01:17:49.116Z,99.90
2018-07-30T01:20:16.571Z,99.90
2018-07-30T01:22:44.019Z,99.90
2018-07-30T01:25:11.417Z,99.90
2018-07-30T01:27:38.859Z,99.90
2018-07-30T01:30:06.536Z,99.90
2018-07-30T01:32:33.906Z,99.90
2018-07-30T01:35:01.314Z,99.90
2018-07-30T01:37:28.763Z,99.90
2018-07-30T01:39:56.118Z,99.90
2018-07-30T01:42:23.498Z,99.90
2018-07-30T01:44:50.976Z,99.90
2018-07-30T01:47:18.319Z,99.90
2018-07-30T01:49:45.705Z,99.90
2018-07-30T01:52:13.056Z,99.90
2018-07-30T01:54:40.445Z,99.90
2018-07-30T01:57:07.886Z,99.90
2018-07-30T01:59:35.242Z,99.90
2018-07-30T02:02:02.584Z,99.90
2018-07-30T02:06:57.102Z,99.90
2018-07-30T02:14:18.946Z,99.90
2018-07-30T02:16:46.308Z,99.90
2018-07-30T02:19:13.682Z,99.90
2018-07-30T02:21:41.070Z,99.90
2018-07-30T02:24:09.442Z,99.90
2018-07-30T02:26:36.871Z,99.90
2018-07-30T02:31:31.387Z,99.90
2018-07-30T02:33:58.717Z,99.90
2018-07-30T02:36:26.111Z,99.90
2018-07-30T02:38:53.542Z,99.90
2018-07-30T02:41:20.954Z,99.90
2018-07-30T02:43:48.383Z,99.90
2018-07-30T02:46:15.834Z,99.90
2018-07-30T02:48:43.229Z,99.90
2018-07-30T02:51:10.595Z,99.90
2018-07-30T02:53:37.962Z,99.90
2018-07-30T02:56:05.370Z,99.90
2018-07-30T02:58:32.798Z,99.90
2018-07-30T03:01:00.242Z,99.90
2018-07-30T03:05:54.862Z,99.90
2018-07-30T03:10:49.559Z,99.90
2018-07-30T03:13:17.011Z,99.90
2018-07-30T03:15:44.393Z,99.90
2018-07-30T03:18:11.750Z,99.90
2018-07-30T03:20:39.166Z,99.90
2018-07-30T03:25:33.757Z,99.90
2018-07-30T03:28:01.096Z,99.90
2018-07-30T03:30:28.528Z,99.90
2018-07-30T03:32:56.016Z,99.90
2018-07-30T03:40:17.934Z,99.90
2018-07-30T03:42:45.322Z,99.90
2018-07-30T03:45:12.691Z,99.90
2018-07-30T03:47:40.082Z,99.90
2018-07-30T03:50:07.676Z,99.90
2018-07-30T03:52:35.165Z,99.90
2018-07-30T03:59:57.365Z,99.90
2018-07-30T04:02:24.690Z,99.90
2018-07-30T04:04:52.050Z,99.90
2018-07-30T04:07:19.450Z,99.90
2018-07-30T04:09:46.878Z,99.90
2018-07-30T04:12:14.295Z,99.90
2018-07-30T04:14:41.721Z,99.90
2018-07-30T04:17:09.111Z,99.90
2018-07-30T04:19:36.602Z,99.90
2018-07-30T04:22:04.009Z,99.90
2018-07-30T04:24:31.391Z,99.90
2018-07-30T04:26:59.812Z,99.90
2018-07-30T04:29:27.154Z,99.90
2018-07-30T04:31:54.517Z,99.90
2018-07-30T04:34:21.918Z,99.90
2018-07-30T04:36:49.377Z,99.90
2018-07-30T04:39:16.734Z,99.90
2018-07-30T04:41:44.580Z,99.90
2018-07-30T04:44:12.010Z,99.90
2018-07-30T04:46:39.478Z,99.90
2018-07-30T04:49:06.994Z,99.90
2018-07-30T04:51:36.193Z,99.90
2018-07-30T05:01:25.522Z,99.90
2018-07-30T05:03:53.965Z,99.90
2018-07-30T05:08:48.565Z,99.90
2018-07-30T05:11:15.975Z,99.90
2018-07-30T05:16:10.583Z,99.90
2018-07-30T05:23:32.433Z,99.90
2018-07-30T05:25:59.839Z,99.90
2018-07-30T05:28:27.341Z,99.90
2018-07-30T05:30:55.675Z,99.90
2018-07-30T05:33:23.058Z,99.90
2018-07-30T05:35:50.426Z,99.90
2018-07-30T05:38:17.973Z,99.90
2018-07-30T05:40:45.334Z,99.90
2018-07-30T05:43:12.793Z,99.90
2018-07-30T05:45:40.203Z,99.90
2018-07-30T05:48:07.784Z,99.90
2018-07-30T05:50:35.388Z,99.90
2018-07-30T05:55:30.096Z,99.90
2018-07-30T05:57:57.551Z,99.90
2018-07-30T06:00:25.059Z,99.90
2018-07-30T06:02:52.839Z,99.90
2018-07-30T06:07:47.511Z,99.90
2018-07-30T06:10:14.882Z,99.90
2018-07-30T06:12:42.409Z,99.90
2018-07-30T06:15:09.767Z,99.90
2018-07-30T06:17:37.137Z,99.90
2018-07-30T06:20:05.995Z,99.90
2018-07-30T06:22:34.435Z,99.90
2018-07-30T06:25:01.912Z,99.90
2018-07-30T06:29:57.329Z,99.90
2018-07-30T06:32:24.775Z,99.90
2018-07-30T06:34:52.178Z,99.90
2018-07-30T06:37:19.534Z,99.90
2018-07-30T06:39:46.911Z,99.90
2018-07-30T06:42:14.269Z,99.90
2018-07-30T06:44:41.615Z,99.90
2018-07-30T06:47:09.022Z,99.90
2018-07-30T06:49:37.412Z,99.90
2018-07-30T06:52:04.802Z,99.90
2018-07-30T06:54:32.265Z,99.90
2018-07-30T06:56:59.655Z,99.90
2018-07-30T06:59:27.010Z,99.90
2018-07-30T07:01:54.399Z,99.90
2018-07-30T07:04:22.510Z,99.90
2018-07-30T07:06:51.505Z,99.90
2018-07-30T07:09:18.946Z,99.90
2018-07-30T07:11:46.355Z,99.90
2018-07-30T07:14:13.763Z,99.90
2018-07-30T07:16:41.204Z,99.90
2018-07-30T07:19:08.647Z,99.90
2018-07-30T07:24:03.319Z,99.90
2018-07-30T07:26:30.754Z,99.90
2018-07-30T07:28:58.488Z,99.90
2018-07-30T07:31:25.871Z,99.90
2018-07-30T07:33:53.523Z,99.90
2018-07-30T07:36:20.965Z,99.90
2018-07-30T07:38:48.347Z,99.90
2018-07-30T07:41:15.716Z,99.90
2018-07-30T07:43:43.095Z,99.90
2018-07-30T07:46:10.603Z,99.90
2018-07-30T07:48:37.968Z,99.90
2018-07-30T07:51:05.500Z,99.90
2018-07-30T07:53:32.994Z,99.90
2018-07-30T07:56:00.342Z,99.90
2018-07-30T07:58:27.866Z,99.90
2018-07-30T08:00:55.223Z,99.90
2018-07-30T08:08:17.568Z,99.90
2018-07-30T08:10:44.910Z,99.90
2018-07-30T08:15:39.486Z,99.90
2018-07-30T08:18:06.987Z,99.90
2018-07-30T08:20:34.455Z,99.90
2018-07-30T08:23:01.891Z,99.90
2018-07-30T08:25:29.275Z,99.90
2018-07-30T08:27:56.702Z,99.90
2018-07-30T08:30:24.311Z,99.90
2018-07-30T08:32:51.857Z,99.80
2018-07-30T08:35:19.238Z,99.20
2018-07-30T08:37:46.632Z,99.10
2018-07-30T08:40:13.996Z,99.00
2018-07-30T08:42:41.503Z,98.60
2018-07-30T08:47:36.145Z,97.80
2018-07-30T08:52:30.848Z,97.00
2018-07-30T08:54:58.281Z,96.60
2018-07-30T08:57:25.745Z,96.60
2018-07-30T08:59:53.121Z,96.20
2018-07-30T09:02:20.489Z,96.10
2018-07-30T09:09:57.147Z,95.20
2018-07-30T09:12:24.605Z,94.80
2018-07-30T09:14:51.903Z,94.40
2018-07-30T09:17:19.567Z,94.30
2018-07-30T09:19:46.976Z,93.20
2018-07-30T09:24:41.593Z,92.60
2018-07-30T09:27:09.005Z,92.20
2018-07-30T09:29:36.426Z,92.20
2018-07-30T09:32:03.797Z,91.60
2018-07-30T09:34:31.483Z,91.40
2018-07-30T09:36:58.867Z,91.30
2018-07-30T09:41:53.592Z,91.00
2018-07-30T09:46:48.247Z,90.70
2018-07-30T09:49:15.971Z,90.50
2018-07-30T09:51:43.695Z,90.00
2018-07-30T09:56:38.299Z,89.20
2018-07-30T09:59:05.829Z,88.50
2018-07-30T10:01:33.268Z,88.00
2018-07-30T10:04:01.146Z,87.10
2018-07-30T10:06:28.518Z,86.90
2018-07-30T10:08:56.025Z,86.80
2018-07-30T10:11:23.619Z,85.70
2018-07-30T10:13:51.313Z,84.50
2018-07-30T10:16:19.079Z,82.80
2018-07-30T10:18:46.639Z,81.20
2018-07-30T10:21:14.470Z,80.90
2018-07-30T10:23:41.919Z,80.20
2018-07-30T10:26:09.475Z,78.80
2018-07-30T10:28:37.027Z,77.40
2018-07-30T10:31:04.729Z,74.60
2018-07-30T10:33:32.208Z,74.00
2018-07-30T10:35:59.551Z,72.20
2018-07-30T10:38:26.932Z,72.70
2018-07-30T10:43:21.591Z,69.80
2018-07-30T10:45:49.652Z,69.60
2018-07-30T10:48:17.564Z,67.10
2018-07-30T10:50:45.540Z,67.10
2018-07-30T10:53:12.966Z,66.30
2018-07-30T10:55:40.335Z,65.70
2018-07-30T10:58:07.695Z,64.10
2018-07-30T11:00:35.267Z,62.60
2018-07-30T11:03:02.639Z,60.90
2018-07-30T11:05:30.051Z,62.10
2018-07-30T11:10:24.804Z,64.60
2018-07-30T11:12:52.318Z,63.80
2018-07-30T11:15:19.924Z,64.40
2018-07-30T11:17:47.454Z,64.30
2018-07-30T11:20:15.287Z,64.00
2018-07-30T11:22:42.646Z,63.90
2018-07-30T11:25:10.337Z,63.60
2018-07-30T11:27:38.328Z,63.90
2018-07-30T11:30:06.223Z,64.30
2018-07-30T11:32:33.675Z,61.70
2018-07-30T11:35:01.537Z,60.80
2018-07-30T11:39:56.404Z,59.60
2018-07-30T11:42:24.603Z,59.80
2018-07-30T11:44:52.383Z,60.00
2018-07-30T11:47:19.742Z,59.80
2018-07-30T11:49:47.182Z,59.70
2018-07-30T11:54:42.173Z,58.90
2018-07-30T11:57:09.632Z,58.60
2018-07-30T11:59:37.081Z,58.40
2018-07-30T12:02:05.559Z,57.60
2018-07-30T12:09:27.637Z,56.40
2018-07-30T12:11:55.549Z,55.80
2018-07-30T12:14:22.991Z,56.40
2018-07-30T12:16:51.192Z,55.20
2018-07-30T12:19:18.739Z,56.10
2018-07-30T12:21:46.171Z,55.40
2018-07-30T12:24:13.611Z,55.70
2018-07-30T12:29:08.236Z,55.10
2018-07-30T12:34:03.044Z,55.20
2018-07-30T12:36:30.568Z,55.20
2018-07-30T12:41:25.388Z,56.30
2018-07-30T12:46:20.181Z,57.40
2018-07-30T12:48:47.546Z,56.80
2018-07-30T12:51:15.277Z,56.60
2018-07-30T12:53:42.703Z,56.10
2018-07-30T12:56:10.092Z,56.00
2018-07-30T12:58:37.642Z,56.20
2018-07-30T13:01:05.064Z,55.90
2018-07-30T13:03:32.484Z,54.70
2018-07-30T13:06:00.192Z,54.00
2018-07-30T13:08:27.900Z,54.70
2018-07-30T13:10:55.511Z,54.70
2018-07-30T13:13:23.047Z,54.30
2018-07-30T13:15:50.650Z,53.70
2018-07-30T13:18:18.020Z,53.40
2018-07-30T13:20:45.712Z,53.80
2018-07-30T13:23:13.129Z,53.20
2018-07-30T13:25:40.578Z,53.20
2018-07-30T13:28:08.003Z,53.30
2018-07-30T13:30:35.593Z,52.80
2018-07-30T13:35:30.363Z,52.60
2018-07-30T13:37:58.142Z,52.50
2018-07-30T13:40:25.527Z,51.70
2018-07-30T13:42:53.053Z,51.30
2018-07-30T13:45:20.432Z,50.60
2018-07-30T13:50:15.594Z,51.40
2018-07-30T13:52:42.968Z,51.50
2018-07-30T13:55:10.435Z,51.30
2018-07-30T13:57:38.054Z,51.20
2018-07-30T14:00:06.684Z,51.20
2018-07-30T14:05:01.476Z,50.30
2018-07-30T14:07:29.572Z,50.30
2018-07-30T14:09:56.927Z,49.70
2018-07-30T14:12:24.384Z,49.50
2018-07-30T14:14:51.794Z,49.10
2018-07-30T14:17:19.387Z,49.10
2018-07-30T14:24:41.463Z,48.80
2018-07-30T14:27:09.220Z,48.60
2018-07-30T14:29:36.747Z,48.40
2018-07-30T14:32:04.157Z,47.90
2018-07-30T14:34:31.817Z,47.30
2018-07-30T14:36:59.490Z,47.50
2018-07-30T14:39:27.050Z,47.30
2018-07-30T14:41:55.044Z,47.40
2018-07-30T14:44:24.888Z,47.30
2018-07-30T14:49:19.769Z,47.40
2018-07-30T14:51:48.519Z,46.80
2018-07-30T14:54:16.579Z,46.40
2018-07-30T14:56:44.035Z,45.40
2018-07-30T15:04:07.311Z,46.00
2018-07-30T15:06:34.770Z,45.30
2018-07-30T15:09:02.352Z,44.70
2018-07-30T15:11:29.844Z,44.50
2018-07-30T15:13:57.349Z,44.40
2018-07-30T15:21:19.491Z,45.00
2018-07-30T15:23:47.137Z,45.90
2018-07-30T15:28:42.267Z,46.10
2018-07-30T15:31:09.826Z,46.00
2018-07-30T15:33:37.314Z,45.10
2018-07-30T15:36:04.665Z,44.40
2018-07-30T15:38:32.023Z,45.30
2018-07-30T15:40:59.377Z,44.10
2018-07-30T15:43:26.854Z,45.10
2018-07-30T15:45:54.421Z,45.30
2018-07-30T15:48:21.866Z,45.00
2018-07-30T15:50:49.283Z,44.80
2018-07-30T15:53:16.655Z,44.60
2018-07-30T15:55:44.133Z,42.70
2018-07-30T15:58:11.655Z,43.30
2018-07-30T16:00:39.619Z,42.40
2018-07-30T16:03:07.859Z,38.20
2018-07-30T16:05:35.333Z,38.10
2018-07-30T16:08:02.703Z,36.60
2018-07-30T16:10:30.111Z,35.50
2018-07-30T16:12:57.545Z,33.90
2018-07-30T16:15:24.972Z,33.40
2018-07-30T16:17:52.334Z,32.00
2018-07-30T16:20:20.062Z,32.20
2018-07-30T16:25:14.879Z,31.30
2018-07-30T16:27:42.684Z,30.20
2018-07-30T16:30:10.575Z,30.10
2018-07-30T16:35:06.256Z,29.90
2018-07-30T16:37:33.674Z,29.10
2018-07-30T16:40:01.488Z,29.20
2018-07-30T16:42:29.053Z,28.80
2018-07-30T16:47:23.742Z,29.10
2018-07-30T16:49:51.532Z,29.00
2018-07-30T16:54:46.427Z,28.40
2018-07-30T16:57:13.958Z,28.50
2018-07-30T17:02:08.701Z,29.00
2018-07-30T17:04:36.100Z,28.40
2018-07-30T17:07:03.506Z,28.80
2018-07-30T17:09:31.215Z,28.40
2018-07-30T17:11:58.786Z,28.30
2018-07-30T17:16:53.404Z,28.40
2018-07-30T17:19:20.951Z,28.50
2018-07-30T17:21:48.335Z,28.30
2018-07-30T17:24:16.532Z,28.70
2018-07-30T17:26:44.181Z,28.50
2018-07-30T17:29:11.681Z,28.10
2018-07-30T17:31:39.120Z,27.80
2018-07-30T17:34:07.067Z,28.00
2018-07-30T17:36:34.588Z,27.70
2018-07-30T17:39:02.714Z,27.50
2018-07-30T17:41:30.227Z,27.70
2018-07-30T17:43:59.924Z,27.30
2018-07-30T17:46:27.414Z,27.40
2018-07-30T17:48:54.928Z,27.70
2018-07-30T17:51:22.529Z,28.10
2018-07-30T17:53:50.237Z,28.20
2018-07-30T17:56:17.920Z,28.30
2018-07-30T17:58:45.829Z,28.10
2018-07-30T18:01:13.449Z,28.30
2018-07-30T18:03:40.901Z,28.70
2018-07-30T18:06:08.400Z,28.90
2018-07-30T18:08:35.772Z,29.20
2018-07-30T18:11:03.366Z,29.40
2018-07-30T18:13:31.313Z,29.60
2018-07-30T18:15:59.091Z,29.90
2018-07-30T18:18:27.268Z,30.30
2018-07-30T18:20:54.885Z,31.20
2018-07-30T18:23:22.745Z,32.70
2018-07-30T18:25:50.329Z,33.20
2018-07-30T18:28:18.029Z,34.30
2018-07-30T18:30:45.709Z,35.70
2018-07-30T18:33:13.260Z,36.80
2018-07-30T18:35:40.975Z,37.60
2018-07-30T18:38:08.800Z,38.40
2018-07-30T18:40:36.232Z,38.90
2018-07-30T18:43:07.594Z,39.80
2018-07-30T18:50:30.057Z,41.50
2018-07-30T18:52:57.579Z,41.80
2018-07-30T18:55:25.806Z,42.30
2018-07-30T18:57:53.539Z,42.80
2018-07-30T19:02:55.576Z,43.80
2018-07-30T19:05:23.315Z,43.90
2018-07-30T19:07:51.383Z,43.70
2018-07-30T19:10:19.705Z,44.50
2018-07-30T19:12:47.230Z,44.20
2018-07-30T19:15:14.961Z,44.50
2018-07-30T19:17:42.447Z,44.40
2018-07-30T19:22:37.687Z,44.50
2018-07-30T19:25:05.730Z,45.20
2018-07-30T19:27:33.455Z,44.80
2018-07-30T19:30:00.976Z,44.80
2018-07-30T19:32:30.777Z,44.90
2018-07-30T19:34:58.525Z,45.10
2018-07-30T19:37:26.002Z,45.00
2018-07-30T19:39:53.330Z,45.00
2018-07-30T19:42:20.777Z,45.30
2018-07-30T19:44:49.035Z,45.00
2018-07-30T19:47:17.199Z,44.90
2018-07-30T19:49:45.383Z,45.10
2018-07-30T19:52:13.256Z,44.90
2018-07-30T19:57:08.335Z,45.20
2018-07-30T19:59:35.997Z,45.30
2018-07-30T20:02:03.508Z,45.00
2018-07-30T20:04:31.158Z,45.20
2018-07-30T20:06:58.618Z,45.30
2018-07-30T20:16:49.464Z,45.60
2018-07-30T20:19:16.987Z,45.60
2018-07-30T20:21:44.900Z,45.80
2018-07-30T20:24:12.327Z,45.60
2018-07-30T20:26:40.730Z,45.80
2018-07-30T20:29:08.359Z,45.90
2018-07-30T20:31:35.742Z,46.10
2018-07-30T20:34:03.505Z,46.30
2018-07-30T20:36:32.495Z,46.70
2018-07-30T20:39:00.088Z,47.00
2018-07-30T20:41:27.634Z,47.00
2018-07-30T20:43:56.168Z,47.20
2018-07-30T20:46:23.885Z,47.50
2018-07-30T20:48:51.531Z,47.70
2018-07-30T20:51:18.987Z,47.70
2018-07-30T20:53:46.517Z,47.70
2018-07-30T20:56:14.150Z,47.90
2018-07-30T20:58:41.764Z,48.10
2018-07-30T21:01:09.294Z,48.30
2018-07-30T21:03:36.743Z,48.60
2018-07-30T21:06:04.217Z,48.90
2018-07-30T21:11:01.390Z,49.30
2018-07-30T21:13:29.203Z,49.70
2018-07-30T21:15:56.991Z,49.90
2018-07-30T21:18:24.587Z,50.00
2018-07-30T21:23:30.435Z,50.40
2018-07-30T21:25:58.065Z,50.70
2018-07-30T21:28:27.113Z,51.30
2018-07-30T21:30:56.185Z,51.50
2018-07-30T21:33:24.204Z,51.80
2018-07-30T21:35:51.639Z,52.20
2018-07-30T21:38:19.115Z,52.40
2018-07-30T21:40:46.639Z,52.50
2018-07-30T21:43:14.160Z,52.60
2018-07-30T21:45:41.907Z,53.30
2018-07-30T21:48:09.703Z,52.60
2018-07-30T21:50:37.865Z,52.70
2018-07-30T21:53:05.462Z,52.90
2018-07-30T21:55:33.941Z,52.90
2018-07-30T22:00:29.240Z,53.10
2018-07-30T22:02:57.569Z,53.20
2018-07-30T22:05:25.186Z,53.40
2018-07-30T22:07:52.823Z,53.60
2018-07-30T22:10:22.942Z,53.60
2018-07-30T22:12:51.149Z,53.70
2018-07-30T22:15:18.555Z,54.30
2018-07-30T22:17:46.481Z,54.60
2018-07-30T22:20:13.841Z,54.20
2018-07-30T22:22:41.749Z,54.40
2018-07-30T22:25:09.470Z,54.60
2018-07-30T22:27:37.733Z,54.70
2018-07-30T22:30:06.312Z,55.10
2018-07-30T22:32:33.902Z,55.20
2018-07-30T22:35:01.308Z,55.60
2018-07-30T22:37:29.728Z,55.70
2018-07-30T22:39:57.365Z,55.90
2018-07-30T22:42:24.776Z,56.20
2018-07-30T22:47:19.473Z,56.70
2018-07-30T22:49:46.827Z,57.10
2018-07-30T22:52:14.220Z,57.30
2018-07-30T22:54:41.567Z,57.40
2018-07-30T22:57:08.928Z,57.60
2018-07-30T22:59:36.326Z,57.70
2018-07-30T23:02:04.188Z,57.90
2018-07-30T23:04:31.722Z,58.10
2018-07-30T23:19:16.225Z,59.50
2018-07-30T23:24:10.932Z,59.90
2018-07-30T23:26:38.288Z,60.20
2018-07-30T23:29:05.664Z,60.60
2018-07-30T23:31:33.226Z,60.80
2018-07-30T23:34:00.711Z,60.80
2018-07-30T23:36:28.244Z,61.10
2018-07-30T23:38:55.627Z,61.40
2018-07-30T23:41:23.208Z,61.60
2018-07-30T23:43:50.871Z,61.80
2018-07-30T23:46:18.242Z,62.20
2018-07-30T23:48:45.623Z,62.40
2018-07-30T23:51:12.961Z,62.80
2018-07-30T23:53:40.510Z,63.00
